createdAt,value
2018-11-05T00:00:03.020Z,87.55
2018-11-05T00:02:37.663Z,88.48
2018-11-05T00:05:13.080Z,89.29
2018-11-05T00:07:47.553Z,89.15
2018-11-05T00:10:22.088Z,89.22
2018-11-05T00:12:57.063Z,89.59
2018-11-05T00:15:31.824Z,89.54
2018-11-05T00:18:06.661Z,89.21
2018-11-05T00:20:41.067Z,88.93
2018-11-05T00:23:15.664Z,88.49
2018-11-05T00:25:50.772Z,88.72
2018-11-05T00:28:25.729Z,89.34
2018-11-05T00:31:00.617Z,89.55
2018-11-05T00:33:35.079Z,89.25
2018-11-05T00:36:10.111Z,89.43
2018-11-05T00:38:44.635Z,88.70
2018-11-05T00:41:19.617Z,88.76
2018-11-05T00:43:54.176Z,89.16
2018-11-05T00:46:28.740Z,88.81
2018-11-05T00:49:03.524Z,88.74
2018-11-05T00:51:37.956Z,89.08
2018-11-05T00:54:12.651Z,88.91
2018-11-05T00:56:47.251Z,88.49
2018-11-05T00:59:21.713Z,88.13
2018-11-05T01:01:56.502Z,89.11
2018-11-05T01:04:31.509Z,88.92
2018-11-05T01:07:06.320Z,89.12
2018-11-05T01:09:41.023Z,88.81
2018-11-05T01:12:15.436Z,88.81
2018-11-05T01:14:50.153Z,88.17
2018-11-05T01:17:24.906Z,88.37
2018-11-05T01:19:59.655Z,88.55
2018-11-05T01:22:34.404Z,88.94
2018-11-05T01:25:08.812Z,88.74
2018-11-05T01:27:43.473Z,89.02
2018-11-05T01:30:18.110Z,89.04
2018-11-05T01:32:53.125Z,89.16
2018-11-05T01:35:27.981Z,88.66
2018-11-05T01:38:02.518Z,88.22
2018-11-05T01:40:37.629Z,88.10
2018-11-05T01:43:12.044Z,87.64
2018-11-05T01:45:46.873Z,87.94
2018-11-05T01:48:21.143Z,87.87
2018-11-05T01:50:56.448Z,88.04
2018-11-05T01:53:34.752Z,87.93
2018-11-05T01:56:09.402Z,87.86
2018-11-05T01:58:44.457Z,87.71
2018-11-05T02:01:19.340Z,87.41
2018-11-05T02:03:54.064Z,87.50
2018-11-05T02:06:29.332Z,88.15
2018-11-05T02:09:04.929Z,87.96
2018-11-05T02:11:39.596Z,87.78
2018-11-05T02:14:14.449Z,87.50
2018-11-05T02:16:49.583Z,87.41
2018-11-05T02:19:23.878Z,88.27
2018-11-05T02:21:59.073Z,88.10
2018-11-05T02:24:33.532Z,87.94
2018-11-05T02:27:08.370Z,88.08
2018-11-05T02:29:43.656Z,87.55
2018-11-05T02:32:18.305Z,87.69
2018-11-05T02:34:53.189Z,87.77
2018-11-05T02:37:28.024Z,88.31
2018-11-05T02:40:02.942Z,88.48
2018-11-05T02:42:37.872Z,88.42
2018-11-05T02:45:13.668Z,88.58
2018-11-05T02:47:48.470Z,89.23
2018-11-05T02:50:22.868Z,89.18
2018-11-05T02:52:57.418Z,88.89
2018-11-05T02:55:31.888Z,88.93
2018-11-05T02:58:06.586Z,89.69
2018-11-05T03:00:41.480Z,90.14
2018-11-05T03:03:16.380Z,89.89
2018-11-05T03:05:51.026Z,90.48
2018-11-05T03:08:25.811Z,90.49
2018-11-05T03:11:01.056Z,90.80
2018-11-05T03:13:35.480Z,90.91
2018-11-05T03:16:09.813Z,90.33
2018-11-05T03:18:44.780Z,90.74
2018-11-05T03:21:19.687Z,90.67
2018-11-05T03:23:54.585Z,90.75
2018-11-05T03:26:28.974Z,90.75
2018-11-05T03:29:03.817Z,90.90
2018-11-05T03:31:38.330Z,91.21
2018-11-05T03:34:13.672Z,91.17
2018-11-05T03:36:47.964Z,91.31
2018-11-05T03:39:22.483Z,91.32
2018-11-05T03:41:57.523Z,91.37
2018-11-05T03:44:32.120Z,91.48
2018-11-05T03:47:07.230Z,91.02
2018-11-05T03:49:41.705Z,91.25
2018-11-05T03:52:16.480Z,91.41
2018-11-05T03:54:51.016Z,91.14
2018-11-05T03:57:25.448Z,91.02
2018-11-05T04:00:00.113Z,91.49
2018-11-05T04:02:34.513Z,91.15
2018-11-05T04:05:09.177Z,91.17
2018-11-05T04:07:43.635Z,90.78
2018-11-05T04:10:18.400Z,90.74
2018-11-05T04:12:53.679Z,90.78
2018-11-05T04:15:28.094Z,90.63
2018-11-05T04:18:02.993Z,90.39
2018-11-05T04:20:37.518Z,90.35
2018-11-05T04:23:11.824Z,90.72
2018-11-05T04:25:46.132Z,90.79
2018-11-05T04:28:20.813Z,90.91
2018-11-05T04:30:55.760Z,90.45
2018-11-05T04:33:30.644Z,90.35
2018-11-05T04:36:06.098Z,90.71
2018-11-05T04:38:40.521Z,90.66
2018-11-05T04:41:14.920Z,90.16
2018-11-05T04:43:49.688Z,90.25
2018-11-05T04:46:24.080Z,90.03
2018-11-05T04:48:59.320Z,90.11
2018-11-05T04:51:34.525Z,89.74
2018-11-05T04:54:09.179Z,89.77
2018-11-05T04:56:44.439Z,89.43
2018-11-05T04:59:19.176Z,89.64
2018-11-05T05:01:53.737Z,88.90
2018-11-05T05:04:28.052Z,88.86
2018-11-05T05:07:02.693Z,88.99
2018-11-05T05:09:38.388Z,88.58
2018-11-05T05:12:12.896Z,88.70
2018-11-05T05:14:47.589Z,88.94
2018-11-05T05:17:22.100Z,88.44
2018-11-05T05:19:56.705Z,88.35
2018-11-05T05:22:31.487Z,88.56
2018-11-05T05:25:06.568Z,88.67
2018-11-05T05:27:41.340Z,88.50
2018-11-05T05:30:18.108Z,88.38
2018-11-05T05:32:52.744Z,88.07
2018-11-05T05:35:27.484Z,88.50
2018-11-05T05:38:02.218Z,88.61
2018-11-05T05:40:36.962Z,88.45
2018-11-05T05:43:11.446Z,88.23
2018-11-05T05:45:45.924Z,88.19
2018-11-05T05:48:20.585Z,88.20
2018-11-05T05:50:55.326Z,88.19
2018-11-05T05:53:29.800Z,88.01
2018-11-05T05:56:04.199Z,88.18
2018-11-05T05:58:40.852Z,88.10
2018-11-05T06:01:17.674Z,87.75
2018-11-05T06:03:53.754Z,87.71
2018-11-05T06:06:29.668Z,87.67
2018-11-05T06:09:07.145Z,87.71
2018-11-05T06:11:41.561Z,87.55
2018-11-05T06:14:16.268Z,88.04
2018-11-05T06:16:50.910Z,88.87
2018-11-05T06:19:25.506Z,89.06
2018-11-05T06:22:00.066Z,89.03
2018-11-05T06:24:34.846Z,88.77
2018-11-05T06:27:09.582Z,88.56
2018-11-05T06:29:44.193Z,88.71
2018-11-05T06:32:19.733Z,88.67
2018-11-05T06:34:54.332Z,88.72
2018-11-05T06:37:29.133Z,89.22
2018-11-05T06:40:03.924Z,88.99
2018-11-05T06:42:38.644Z,88.93
2018-11-05T06:45:14.599Z,88.83
2018-11-05T06:47:49.608Z,88.55
2018-11-05T06:50:25.359Z,88.60
2018-11-05T06:52:59.745Z,88.30
2018-11-05T06:55:34.517Z,88.45
2018-11-05T06:58:09.012Z,88.17
2018-11-05T07:00:43.337Z,87.79
2018-11-05T07:03:17.599Z,87.54
2018-11-05T07:05:52.443Z,87.79
2018-11-05T07:08:27.270Z,87.34
2018-11-05T07:11:01.798Z,87.60
2018-11-05T07:13:36.704Z,87.37
2018-11-05T07:16:11.235Z,86.94
2018-11-05T07:18:46.014Z,87.19
2018-11-05T07:21:20.484Z,86.80
2018-11-05T07:23:55.322Z,86.98
2018-11-05T07:26:30.701Z,86.87
2018-11-05T07:29:05.697Z,86.51
2018-11-05T07:31:40.049Z,86.21
2018-11-05T07:34:15.242Z,87.51
2018-11-05T07:36:49.858Z,87.71
2018-11-05T07:39:24.493Z,87.79
2018-11-05T07:41:58.920Z,87.31
2018-11-05T07:44:33.878Z,86.72
2018-11-05T07:47:09.096Z,86.19
2018-11-05T07:49:43.802Z,86.84
2018-11-05T07:52:19.117Z,86.24
2018-11-05T07:54:53.484Z,85.83
2018-11-05T07:57:28.957Z,85.71
2018-11-05T08:00:05.046Z,85.33
2018-11-05T08:02:39.421Z,85.60
2018-11-05T08:05:15.353Z,85.42
2018-11-05T08:07:50.065Z,85.23
2018-11-05T08:10:24.559Z,84.88
2018-11-05T08:12:59.614Z,85.04
2018-11-05T08:15:33.986Z,85.40
2018-11-05T08:18:08.805Z,85.11
2018-11-05T08:20:43.515Z,85.42
2018-11-05T08:23:18.233Z,84.43
2018-11-05T08:25:52.822Z,83.70
2018-11-05T08:28:27.488Z,84.22
2018-11-05T08:31:02.305Z,83.59
2018-11-05T08:33:37.000Z,83.52
2018-11-05T08:36:11.641Z,83.55
2018-11-05T08:38:46.418Z,82.23
2018-11-05T08:41:20.799Z,81.47
2018-11-05T08:43:55.217Z,81.26
2018-11-05T08:46:29.741Z,81.16
2018-11-05T08:49:04.216Z,81.12
2018-11-05T08:51:39.220Z,80.11
2018-11-05T08:54:14.205Z,79.96
2018-11-05T08:56:49.089Z,80.20
2018-11-05T08:59:24.030Z,79.54
2018-11-05T09:01:58.797Z,79.61
2018-11-05T09:04:33.799Z,78.72
2018-11-05T09:07:08.831Z,79.40
2018-11-05T09:09:43.366Z,78.95
2018-11-05T09:12:18.401Z,78.14
2018-11-05T09:14:53.031Z,76.73
2018-11-05T09:17:27.844Z,75.71
2018-11-05T09:20:03.333Z,76.00
2018-11-05T09:22:38.780Z,75.51
2018-11-05T09:25:14.241Z,74.02
2018-11-05T09:27:49.094Z,73.34
2018-11-05T09:30:24.912Z,72.89
2018-11-05T09:33:00.238Z,73.44
2018-11-05T09:35:35.289Z,73.14
2018-11-05T09:38:10.285Z,71.77
2018-11-05T09:40:44.730Z,70.07
2018-11-05T09:43:19.404Z,69.05
2018-11-05T09:45:53.825Z,68.76
2018-11-05T09:48:28.516Z,68.32
2018-11-05T09:51:03.832Z,66.10
2018-11-05T09:53:38.380Z,65.29
2018-11-05T09:56:13.174Z,64.50
2018-11-05T09:58:48.001Z,65.26
2018-11-05T10:01:22.584Z,64.45
2018-11-05T10:03:57.807Z,65.84
2018-11-05T10:06:33.153Z,65.80
2018-11-05T10:09:10.152Z,66.40
2018-11-05T10:11:44.769Z,67.05
2018-11-05T10:14:19.457Z,67.75
2018-11-05T10:16:54.236Z,68.48
2018-11-05T10:19:28.900Z,68.76
2018-11-05T10:22:03.825Z,69.45
2018-11-05T10:24:38.836Z,71.96
2018-11-05T10:27:13.578Z,72.02
2018-11-05T10:29:47.981Z,72.68
2018-11-05T10:32:22.432Z,73.34
2018-11-05T10:34:57.211Z,73.66
2018-11-05T10:37:32.068Z,72.57
2018-11-05T10:40:09.017Z,73.68
2018-11-05T10:42:44.467Z,73.58
2018-11-05T10:45:19.579Z,73.46
2018-11-05T10:47:54.544Z,73.50
2018-11-05T10:50:29.065Z,73.47
2018-11-05T10:53:03.844Z,72.93
2018-11-05T10:55:38.620Z,72.75
2018-11-05T10:58:12.994Z,72.71
2018-11-05T11:00:53.100Z,72.74
2018-11-05T11:03:34.512Z,72.50
2018-11-05T11:06:10.421Z,71.18
2018-11-05T11:08:45.140Z,71.53
2018-11-05T11:11:19.623Z,71.00
2018-11-05T11:13:54.376Z,70.24
2018-11-05T11:16:28.689Z,70.33
2018-11-05T11:19:03.282Z,69.94
2018-11-05T11:21:37.689Z,68.70
2018-11-05T11:24:12.376Z,67.24
2018-11-05T11:26:47.355Z,66.59
2018-11-05T11:29:22.008Z,65.30
2018-11-05T11:31:56.785Z,64.56
2018-11-05T11:34:31.307Z,63.85
2018-11-05T11:37:06.197Z,61.88
2018-11-05T11:39:40.972Z,60.64
2018-11-05T11:42:15.944Z,59.93
2018-11-05T11:44:50.797Z,59.88
2018-11-05T11:47:25.662Z,59.49
2018-11-05T11:50:00.030Z,58.95
2018-11-05T11:52:34.826Z,59.43
2018-11-05T11:55:12.302Z,60.59
2018-11-05T11:57:47.701Z,61.95
2018-11-05T12:00:23.888Z,63.19
2018-11-05T12:02:58.481Z,63.59
2018-11-05T12:05:32.876Z,63.26
2018-11-05T12:08:07.645Z,61.93
2018-11-05T12:10:42.105Z,60.72
2018-11-05T12:13:16.508Z,59.26
2018-11-05T12:15:51.516Z,59.09
2018-11-05T12:18:26.131Z,59.26
2018-11-05T12:21:00.948Z,58.30
2018-11-05T12:23:35.692Z,57.06
2018-11-05T12:26:10.460Z,56.32
2018-11-05T12:28:45.788Z,55.89
2018-11-05T12:31:20.198Z,55.85
2018-11-05T12:33:55.392Z,55.64
2018-11-05T12:36:30.094Z,55.57
2018-11-05T12:39:07.789Z,56.23
2018-11-05T12:41:42.443Z,55.35
2018-11-05T12:44:17.373Z,55.08
2018-11-05T12:46:52.269Z,53.60
2018-11-05T12:49:26.576Z,53.08
2018-11-05T12:52:01.262Z,55.36
2018-11-05T12:54:36.368Z,55.46
2018-11-05T12:57:11.686Z,54.52
2018-11-05T12:59:46.028Z,55.82
2018-11-05T13:02:24.399Z,55.80
2018-11-05T13:04:58.809Z,56.21
2018-11-05T13:07:34.096Z,55.58
2018-11-05T13:10:10.764Z,56.29
2018-11-05T13:12:45.573Z,57.76
2018-11-05T13:15:20.459Z,58.13
2018-11-05T13:17:55.127Z,57.99
2018-11-05T13:20:29.533Z,58.02
2018-11-05T13:23:04.392Z,59.01
2018-11-05T13:25:39.455Z,58.99
2018-11-05T13:28:14.306Z,58.34
2018-11-05T13:30:49.272Z,58.47
2018-11-05T13:33:23.710Z,58.49
2018-11-05T13:35:58.667Z,58.34
2018-11-05T13:38:33.386Z,58.74
2018-11-05T13:41:08.128Z,59.41
2018-11-05T13:43:42.980Z,59.73
2018-11-05T13:46:18.602Z,60.68
2018-11-05T13:48:53.545Z,61.49
2018-11-05T13:51:27.544Z,62.37
2018-11-05T13:54:04.190Z,63.51
2018-11-05T13:56:39.250Z,64.72
2018-11-05T13:59:14.524Z,64.77
2018-11-05T14:01:50.390Z,66.04
2018-11-05T14:04:25.100Z,66.59
2018-11-05T14:06:59.661Z,66.21
2018-11-05T14:09:34.088Z,65.73
2018-11-05T14:12:08.602Z,66.54
2018-11-05T14:14:42.977Z,66.61
2018-11-05T14:17:17.853Z,65.53
2018-11-05T14:19:53.092Z,65.47
2018-11-05T14:22:27.657Z,65.73
2018-11-05T14:25:02.252Z,65.99
2018-11-05T14:27:37.171Z,66.98
2018-11-05T14:30:13.116Z,67.03
2018-11-05T14:32:48.886Z,67.58
2018-11-05T14:35:23.564Z,68.91
2018-11-05T14:37:58.083Z,69.64
2018-11-05T14:40:33.148Z,69.63
2018-11-05T14:43:07.676Z,68.87
2018-11-05T14:45:42.596Z,68.51
2018-11-05T14:48:17.433Z,69.61
2018-11-05T14:50:52.206Z,70.38
2018-11-05T14:53:26.905Z,69.71
2018-11-05T14:56:01.283Z,69.78
2018-11-05T14:58:36.623Z,69.72
2018-11-05T15:01:11.218Z,69.63
2018-11-05T15:03:45.884Z,70.33
2018-11-05T15:06:20.550Z,70.51
2018-11-05T15:08:56.103Z,70.50
2018-11-05T15:11:30.745Z,70.91
2018-11-05T15:14:05.744Z,70.89
2018-11-05T15:16:40.164Z,71.64
2018-11-05T15:19:15.340Z,71.02
2018-11-05T15:21:49.850Z,70.43
2018-11-05T15:24:24.296Z,70.09
2018-11-05T15:26:59.397Z,70.19
2018-11-05T15:29:33.885Z,70.60
2018-11-05T15:32:08.920Z,68.95
2018-11-05T15:34:43.662Z,67.91
2018-11-05T15:37:18.288Z,68.97
2018-11-05T15:39:52.948Z,68.18
2018-11-05T15:42:27.956Z,67.86
2018-11-05T15:45:02.814Z,69.04
2018-11-05T15:47:37.785Z,68.75
2018-11-05T15:50:13.482Z,69.61
2018-11-05T15:52:48.300Z,70.39
2018-11-05T15:55:23.112Z,70.21
2018-11-05T15:57:57.784Z,70.88
2018-11-05T16:00:32.928Z,71.58
2018-11-05T16:03:07.863Z,71.71
2018-11-05T16:05:42.380Z,71.99
2018-11-05T16:08:16.940Z,72.67
2018-11-05T16:10:51.392Z,73.26
2018-11-05T16:13:25.878Z,73.54
2018-11-05T16:16:00.535Z,73.40
2018-11-05T16:18:44.524Z,74.19
2018-11-05T16:21:19.023Z,74.07
2018-11-05T16:24:19.259Z,74.35
2018-11-05T16:27:10.055Z,74.31
2018-11-05T16:29:44.803Z,74.72
2018-11-05T16:32:19.240Z,75.03
2018-11-05T16:34:54.487Z,74.99
2018-11-05T16:37:29.387Z,75.10
2018-11-05T16:40:11.053Z,75.87
2018-11-05T16:42:47.481Z,75.01
2018-11-05T16:45:22.187Z,76.34
2018-11-05T16:48:05.967Z,75.31
2018-11-05T16:50:42.937Z,74.36
2018-11-05T16:54:03.355Z,74.82
2018-11-05T16:59:57.184Z,72.80
2018-11-05T17:02:37.012Z,72.57
2018-11-05T17:05:18.576Z,70.73
2018-11-05T17:08:03.448Z,67.76
2018-11-05T17:10:38.366Z,67.12
2018-11-05T17:13:13.045Z,65.85
2018-11-05T17:15:48.239Z,64.26
2018-11-05T17:18:22.809Z,64.91
2018-11-05T17:20:57.536Z,64.81
2018-11-05T17:23:32.077Z,64.58
2018-11-05T17:26:06.626Z,64.98
2018-11-05T17:28:42.676Z,64.95
2018-11-05T17:31:17.330Z,64.24
2018-11-05T17:33:52.740Z,63.14
2018-11-05T17:36:31.069Z,61.76
2018-11-05T17:39:08.877Z,61.29
2018-11-05T17:41:43.637Z,60.28
2018-11-05T17:44:18.061Z,59.71
2018-11-05T17:46:52.726Z,59.32
2018-11-05T17:49:27.464Z,58.78
2018-11-05T17:52:03.261Z,58.93
2018-11-05T17:54:38.067Z,59.54
2018-11-05T17:57:12.778Z,59.19
2018-11-05T17:59:47.385Z,59.36
2018-11-05T18:02:23.859Z,58.95
2018-11-05T18:04:58.902Z,58.99
2018-11-05T18:07:34.304Z,58.29
2018-11-05T18:10:09.182Z,59.40
2018-11-05T18:12:43.678Z,58.91
2018-11-05T18:15:18.251Z,58.87
2018-11-05T18:17:54.405Z,58.84
2018-11-05T18:20:29.278Z,59.38
2018-11-05T18:23:05.557Z,58.91
2018-11-05T18:25:40.696Z,58.59
2018-11-05T18:28:15.339Z,58.44
2018-11-05T18:31:00.587Z,58.71
2018-11-05T18:33:35.361Z,58.07
2018-11-05T18:36:10.177Z,57.49
2018-11-05T18:38:44.766Z,57.92
2018-11-05T18:41:19.640Z,58.26
2018-11-05T18:43:54.392Z,57.49
2018-11-05T18:46:30.385Z,57.18
2018-11-05T18:49:09.457Z,56.72
2018-11-05T18:51:44.199Z,56.45
2018-11-05T18:54:47.382Z,57.24
2018-11-05T18:57:22.338Z,56.95
2018-11-05T18:59:56.792Z,56.70
2018-11-05T19:02:35.682Z,57.51
2018-11-05T19:05:11.780Z,57.39
2018-11-05T19:07:46.944Z,57.70
2018-11-05T19:10:27.085Z,57.57
2018-11-05T19:13:01.837Z,57.01
2018-11-05T19:15:37.421Z,57.20
2018-11-05T19:18:12.378Z,57.49
2018-11-05T19:20:47.737Z,58.73
2018-11-05T19:23:22.512Z,58.41
2018-11-05T19:25:57.829Z,59.47
2018-11-05T19:28:34.190Z,60.58
2018-11-05T19:31:08.962Z,60.91
2018-11-05T19:33:50.973Z,61.82
2018-11-05T19:36:25.797Z,61.67
2018-11-05T19:39:00.241Z,62.36
2018-11-05T19:41:35.172Z,62.91
2018-11-05T19:44:11.867Z,63.72
2018-11-05T19:46:47.252Z,64.28
2018-11-05T19:49:28.209Z,65.26
2018-11-05T19:55:17.622Z,66.63
2018-11-05T19:57:52.996Z,67.99
2018-11-05T20:00:30.732Z,68.16
2018-11-05T20:03:12.727Z,68.86
2018-11-05T20:05:47.521Z,69.85
2018-11-05T20:08:23.044Z,70.60
2018-11-05T20:10:58.016Z,70.31
2018-11-05T20:13:32.637Z,70.74
2018-11-05T20:16:07.589Z,71.36
2018-11-05T20:18:42.631Z,72.10
2018-11-05T20:21:17.536Z,72.21
2018-11-05T20:23:52.104Z,72.53
2018-11-05T20:26:26.720Z,72.80
2018-11-05T20:29:01.446Z,72.84
2018-11-05T20:31:36.762Z,73.17
2018-11-05T20:34:11.269Z,73.42
2018-11-05T20:36:45.929Z,74.30
2018-11-05T20:39:20.633Z,73.72
2018-11-05T20:41:55.188Z,73.52
2018-11-05T20:44:29.905Z,72.24
2018-11-05T20:47:04.462Z,70.93
2018-11-05T20:49:40.144Z,69.82
2018-11-05T20:52:14.601Z,68.99
2018-11-05T20:54:49.121Z,68.18
2018-11-05T20:57:24.073Z,67.27
2018-11-05T20:59:59.122Z,66.62
2018-11-05T21:02:34.116Z,66.12
2018-11-05T21:05:08.529Z,65.42
2018-11-05T21:07:43.873Z,65.14
2018-11-05T21:10:18.552Z,64.20
2018-11-05T21:12:53.693Z,63.54
2018-11-05T21:15:30.181Z,64.54
2018-11-05T21:18:04.984Z,63.33
2018-11-05T21:20:40.295Z,62.89
2018-11-05T21:23:14.848Z,63.41
2018-11-05T21:25:55.163Z,63.20
2018-11-05T21:28:29.797Z,62.89
2018-11-05T21:31:04.711Z,62.73
2018-11-05T21:33:39.357Z,61.83
2018-11-05T21:36:13.972Z,62.19
2018-11-05T21:38:49.157Z,62.30
2018-11-05T21:41:24.717Z,61.82
2018-11-05T21:43:59.320Z,61.73
2018-11-05T21:46:33.997Z,61.07
2018-11-05T21:49:08.663Z,60.71
2018-11-05T21:51:43.186Z,60.99
2018-11-05T21:54:19.733Z,61.84
2018-11-05T21:56:54.677Z,62.22
2018-11-05T21:59:29.227Z,62.56
2018-11-05T22:02:04.268Z,63.39
2018-11-05T22:04:38.968Z,63.52
2018-11-05T22:07:13.841Z,63.56
2018-11-05T22:09:49.414Z,63.77
2018-11-05T22:12:23.952Z,65.81
2018-11-05T22:14:58.694Z,66.23
2018-11-05T22:17:32.973Z,66.71
2018-11-05T22:20:08.584Z,67.46
2018-11-05T22:22:43.144Z,67.59
2018-11-05T22:25:18.141Z,67.84
2018-11-05T22:27:52.801Z,67.47
2018-11-05T22:30:27.504Z,67.27
2018-11-05T22:33:02.018Z,66.52
2018-11-05T22:35:37.027Z,66.81
2018-11-05T22:38:12.095Z,66.29
2018-11-05T22:40:47.121Z,66.11
2018-11-05T22:43:21.636Z,67.20
2018-11-05T22:45:57.480Z,67.26
2018-11-05T22:48:32.555Z,67.00
2018-11-05T22:51:07.808Z,67.59
2018-11-05T22:53:42.209Z,68.05
2018-11-05T22:56:17.174Z,67.79
2018-11-05T22:58:51.526Z,66.83
2018-11-05T23:01:31.657Z,67.06
2018-11-05T23:04:06.788Z,67.03
2018-11-05T23:06:42.122Z,67.17
2018-11-05T23:09:17.746Z,66.81
2018-11-05T23:11:52.999Z,67.81
2018-11-05T23:14:27.460Z,67.37
2018-11-05T23:17:01.863Z,67.62
2018-11-05T23:19:36.757Z,67.99
2018-11-05T23:22:11.217Z,67.74
2018-11-05T23:24:45.905Z,67.93
2018-11-05T23:27:20.504Z,68.48
2018-11-05T23:32:32.005Z,69.13
2018-11-05T23:35:07.464Z,69.60
2018-11-05T23:37:42.211Z,70.33
2018-11-05T23:40:16.585Z,70.88
2018-11-05T23:42:51.380Z,71.51
2018-11-05T23:45:25.826Z,71.65
2018-11-05T23:48:00.360Z,71.24
2018-11-05T23:50:34.892Z,72.01
2018-11-05T23:53:09.253Z,71.95
2018-11-05T23:55:43.661Z,73.13
2018-11-05T23:58:18.168Z,73.60
